sensor_id;sensor_type;location;lat;lon;timestamp;pressure;altitude;pressure_sealevel;temperature;humidity
71764;BME280;59602;52.142;5.408;2023-06-19T00:02:23;100856.13;;;22.34;55.44
71764;BME280;59602;52.142;5.408;2023-06-19T00:04:49;100848.63;;;22.35;56.07
71764;BME280;59602;52.142;5.408;2023-06-19T00:07:20;100856.13;;;22.34;55.40
71764;BME280;59602;52.142;5.408;2023-06-19T00:09:48;100862.16;;;22.33;55.39
71764;BME280;59602;52.142;5.408;2023-06-19T00:12:15;100865.06;;;22.29;55.48
71764;BME280;59602;52.142;5.408;2023-06-19T00:14:44;100857.38;;;22.33;54.70
71764;BME280;59602;52.142;5.408;2023-06-19T00:17:11;100856.94;;;22.35;55.79
71764;BME280;59602;52.142;5.408;2023-06-19T00:19:37;100863.69;;;22.34;56.06
71764;BME280;59602;52.142;5.408;2023-06-19T00:22:04;100865.69;;;22.33;56.33
71764;BME280;59602;52.142;5.408;2023-06-19T00:24:31;100855.38;;;22.34;56.50
71764;BME280;59602;52.142;5.408;2023-06-19T00:26:58;100857.69;;;22.35;54.07
71764;BME280;59602;52.142;5.408;2023-06-19T00:29:30;100859.53;;;22.38;54.52
71764;BME280;59602;52.142;5.408;2023-06-19T00:31:56;100856.31;;;22.40;54.83
71764;BME280;59602;52.142;5.408;2023-06-19T00:34:25;100865.06;;;22.38;56.11
71764;BME280;59602;52.142;5.408;2023-06-19T00:36:52;100864.75;;;22.36;55.35
71764;BME280;59602;52.142;5.408;2023-06-19T00:39:23;100866.47;;;22.34;55.50
71764;BME280;59602;52.142;5.408;2023-06-19T00:41:51;100873.25;;;22.33;55.88
71764;BME280;59602;52.142;5.408;2023-06-19T00:44:18;100867.69;;;22.33;56.83
71764;BME280;59602;52.142;5.408;2023-06-19T00:46:45;100870.94;;;22.31;55.85
71764;BME280;59602;52.142;5.408;2023-06-19T00:49:15;100873.53;;;22.26;56.92
71764;BME280;59602;52.142;5.408;2023-06-19T00:51:43;100885.53;;;22.23;57.19
71764;BME280;59602;52.142;5.408;2023-06-19T00:54:10;100886.28;;;22.23;57.10
71764;BME280;59602;52.142;5.408;2023-06-19T00:56:37;100877.22;;;22.23;57.26
71764;BME280;59602;52.142;5.408;2023-06-19T00:59:16;100884.44;;;22.20;57.20
71764;BME280;59602;52.142;5.408;2023-06-19T01:01:44;100880.88;;;22.20;57.42
71764;BME280;59602;52.142;5.408;2023-06-19T01:04:13;100886.78;;;22.22;57.45
71764;BME280;59602;52.142;5.408;2023-06-19T01:06:46;100892.31;;;22.22;58.03
71764;BME280;59602;52.142;5.408;2023-06-19T01:09:16;100885.34;;;22.17;57.82
71764;BME280;59602;52.142;5.408;2023-06-19T01:11:50;100889.19;;;22.10;58.00
71764;BME280;59602;52.142;5.408;2023-06-19T01:14:22;100894.72;;;22.10;58.65
71764;BME280;59602;52.142;5.408;2023-06-19T01:17:04;100901.94;;;22.08;58.88
71764;BME280;59602;52.142;5.408;2023-06-19T01:19:34;100903.94;;;22.07;59.14
71764;BME280;59602;52.142;5.408;2023-06-19T01:22:04;100896.22;;;22.02;59.46
71764;BME280;59602;52.142;5.408;2023-06-19T01:24:48;100902.84;;;21.95;59.70
71764;BME280;59602;52.142;5.408;2023-06-19T01:27:17;100910.38;;;21.95;59.89
71764;BME280;59602;52.142;5.408;2023-06-19T01:29:44;100905.41;;;21.90;59.88
71764;BME280;59602;52.142;5.408;2023-06-19T01:32:17;100909.09;;;21.87;60.02
71764;BME280;59602;52.142;5.408;2023-06-19T01:34:46;100912.81;;;21.84;60.87
71764;BME280;59602;52.142;5.408;2023-06-19T01:37:14;100910.47;;;21.82;61.28
71764;BME280;59602;52.142;5.408;2023-06-19T01:39:41;100921.22;;;21.80;61.46
71764;BME280;59602;52.142;5.408;2023-06-19T01:42:11;100918.91;;;21.79;61.97
71764;BME280;59602;52.142;5.408;2023-06-19T01:44:38;100919.50;;;21.73;62.02
71764;BME280;59602;52.142;5.408;2023-06-19T01:47:10;100922.28;;;21.73;62.19
71764;BME280;59602;52.142;5.408;2023-06-19T01:49:55;100919.63;;;21.70;62.76
71764;BME280;59602;52.142;5.408;2023-06-19T01:52:44;100916.25;;;21.66;62.79
71764;BME280;59602;52.142;5.408;2023-06-19T01:57:44;100921.94;;;21.62;63.43
71764;BME280;59602;52.142;5.408;2023-06-19T02:00:12;100929.47;;;21.62;63.45
71764;BME280;59602;52.142;5.408;2023-06-19T02:02:40;100930.34;;;21.59;63.59
71764;BME280;59602;52.142;5.408;2023-06-19T02:05:07;100918.19;;;21.56;64.04
71764;BME280;59602;52.142;5.408;2023-06-19T02:07:33;100930.94;;;21.53;64.32
71764;BME280;59602;52.142;5.408;2023-06-19T02:10:00;100932.94;;;21.53;64.61
71764;BME280;59602;52.142;5.408;2023-06-19T02:12:29;100930.19;;;21.53;64.73
71764;BME280;59602;52.142;5.408;2023-06-19T02:14:56;100936.81;;;21.55;64.74
71764;BME280;59602;52.142;5.408;2023-06-19T02:17:23;100932.34;;;21.58;64.61
71764;BME280;59602;52.142;5.408;2023-06-19T02:19:49;100924.69;;;21.62;64.63
71764;BME280;59602;52.142;5.408;2023-06-19T02:22:17;100941.94;;;21.66;64.86
71764;BME280;59602;52.142;5.408;2023-06-19T02:24:44;100934.41;;;21.67;64.91
71764;BME280;59602;52.142;5.408;2023-06-19T02:27:13;100946.50;;;21.60;65.73
71764;BME280;59602;52.142;5.408;2023-06-19T02:29:39;100941.91;;;21.57;65.73
71764;BME280;59602;52.142;5.408;2023-06-19T02:32:06;100937.88;;;21.58;65.97
71764;BME280;59602;52.142;5.408;2023-06-19T02:34:33;100939.25;;;21.53;66.40
71764;BME280;59602;52.142;5.408;2023-06-19T02:37:02;100944.47;;;21.51;66.75
71764;BME280;59602;52.142;5.408;2023-06-19T02:39:58;100944.66;;;21.57;66.31
71764;BME280;59602;52.142;5.408;2023-06-19T02:42:25;100944.50;;;21.61;66.52
71764;BME280;59602;52.142;5.408;2023-06-19T02:45:12;100944.97;;;21.59;66.41
71764;BME280;59602;52.142;5.408;2023-06-19T02:47:39;100948.97;;;21.58;66.90
71764;BME280;59602;52.142;5.408;2023-06-19T02:50:11;100950.53;;;21.59;66.62
71764;BME280;59602;52.142;5.408;2023-06-19T02:52:38;100962.34;;;21.60;67.09
71764;BME280;59602;52.142;5.408;2023-06-19T02:55:07;100968.78;;;21.56;67.26
71764;BME280;59602;52.142;5.408;2023-06-19T02:57:36;100962.16;;;21.54;67.17
71764;BME280;59602;52.142;5.408;2023-06-19T03:00:03;100962.47;;;21.56;67.55
71764;BME280;59602;52.142;5.408;2023-06-19T03:02:32;100975.44;;;21.59;67.05
71764;BME280;59602;52.142;5.408;2023-06-19T03:05:01;100968.78;;;21.56;67.45
71764;BME280;59602;52.142;5.408;2023-06-19T03:07:28;100966.91;;;21.53;67.73
71764;BME280;59602;52.142;5.408;2023-06-19T03:09:55;100971.38;;;21.51;67.76
71764;BME280;59602;52.142;5.408;2023-06-19T03:12:23;100966.28;;;21.49;68.00
71764;BME280;59602;52.142;5.408;2023-06-19T03:14:50;100963.50;;;21.49;67.74
71764;BME280;59602;52.142;5.408;2023-06-19T03:17:19;100961.97;;;21.48;68.08
71764;BME280;59602;52.142;5.408;2023-06-19T03:19:47;100960.75;;;21.49;68.42
71764;BME280;59602;52.142;5.408;2023-06-19T03:22:17;100963.19;;;21.47;68.68
71764;BME280;59602;52.142;5.408;2023-06-19T03:25:23;100969.81;;;21.50;68.09
71764;BME280;59602;52.142;5.408;2023-06-19T03:27:49;100964.44;;;21.46;68.80
71764;BME280;59602;52.142;5.408;2023-06-19T03:30:20;100965.84;;;21.51;68.55
71764;BME280;59602;52.142;5.408;2023-06-19T03:32:57;100976.00;;;21.54;68.35
71764;BME280;59602;52.142;5.408;2023-06-19T03:35:24;100976.13;;;21.50;68.91
71764;BME280;59602;52.142;5.408;2023-06-19T03:37:51;100991.19;;;21.49;69.13
71764;BME280;59602;52.142;5.408;2023-06-19T03:40:18;100988.78;;;21.39;69.77
71764;BME280;59602;52.142;5.408;2023-06-19T03:42:51;100986.47;;;21.37;69.97
71764;BME280;59602;52.142;5.408;2023-06-19T03:45:18;100991.69;;;21.35;70.21
71764;BME280;59602;52.142;5.408;2023-06-19T03:47:44;100988.16;;;21.34;70.34
71764;BME280;59602;52.142;5.408;2023-06-19T03:50:11;100996.13;;;21.32;70.73
71764;BME280;59602;52.142;5.408;2023-06-19T03:52:56;100995.91;;;21.27;70.99
71764;BME280;59602;52.142;5.408;2023-06-19T03:55:23;101000.94;;;21.19;71.29
71764;BME280;59602;52.142;5.408;2023-06-19T03:57:49;101012.34;;;21.21;72.02
71764;BME280;59602;52.142;5.408;2023-06-19T04:00:16;101008.16;;;21.17;72.19
71764;BME280;59602;52.142;5.408;2023-06-19T04:02:44;101017.53;;;21.19;72.27
71764;BME280;59602;52.142;5.408;2023-06-19T04:05:20;101024.75;;;21.17;73.19
71764;BME280;59602;52.142;5.408;2023-06-19T04:07:47;101019.56;;;21.06;73.91
71764;BME280;59602;52.142;5.408;2023-06-19T04:10:14;101014.81;;;21.06;73.95
71764;BME280;59602;52.142;5.408;2023-06-19T04:12:40;101024.53;;;21.11;74.03
71764;BME280;59602;52.142;5.408;2023-06-19T04:15:08;101024.66;;;21.07;74.42
71764;BME280;59602;52.142;5.408;2023-06-19T04:17:35;101029.22;;;21.01;75.06
71764;BME280;59602;52.142;5.408;2023-06-19T04:20:05;101035.06;;;21.03;74.58
71764;BME280;59602;52.142;5.408;2023-06-19T04:22:41;101030.75;;;21.02;74.98
71764;BME280;59602;52.142;5.408;2023-06-19T04:25:10;101026.56;;;20.98;75.30
71764;BME280;59602;52.142;5.408;2023-06-19T04:27:37;101033.00;;;20.94;75.51
71764;BME280;59602;52.142;5.408;2023-06-19T04:30:05;101040.97;;;20.92;75.60
71764;BME280;59602;52.142;5.408;2023-06-19T04:32:34;101055.56;;;20.93;75.87
71764;BME280;59602;52.142;5.408;2023-06-19T04:35:02;101054.78;;;20.92;75.86
71764;BME280;59602;52.142;5.408;2023-06-19T04:37:29;101054.78;;;20.92;75.76
71764;BME280;59602;52.142;5.408;2023-06-19T04:39:56;101062.84;;;20.87;76.23
71764;BME280;59602;52.142;5.408;2023-06-19T04:42:28;101064.97;;;20.83;76.73
71764;BME280;59602;52.142;5.408;2023-06-19T04:44:54;101060.34;;;20.80;76.88
71764;BME280;59602;52.142;5.408;2023-06-19T04:47:24;101063.75;;;20.84;76.61
71764;BME280;59602;52.142;5.408;2023-06-19T04:50:07;101075.59;;;20.84;76.41
71764;BME280;59602;52.142;5.408;2023-06-19T04:52:34;101074.69;;;20.87;76.54
71764;BME280;59602;52.142;5.408;2023-06-19T04:55:01;101081.09;;;20.84;76.28
71764;BME280;59602;52.142;5.408;2023-06-19T04:57:27;101087.06;;;20.83;76.32
71764;BME280;59602;52.142;5.408;2023-06-19T04:59:54;101089.84;;;20.83;75.99
71764;BME280;59602;52.142;5.408;2023-06-19T05:02:21;101082.34;;;20.83;75.56
71764;BME280;59602;52.142;5.408;2023-06-19T05:04:50;101084.19;;;20.86;75.17
71764;BME280;59602;52.142;5.408;2023-06-19T05:07:17;101083.09;;;20.84;74.22
71764;BME280;59602;52.142;5.408;2023-06-19T05:09:46;101089.06;;;20.82;74.19
71764;BME280;59602;52.142;5.408;2023-06-19T05:12:15;101090.31;;;20.81;73.83
71764;BME280;59602;52.142;5.408;2023-06-19T05:14:42;101090.84;;;20.76;73.63
71764;BME280;59602;52.142;5.408;2023-06-19T05:17:09;101087.75;;;20.74;73.68
71764;BME280;59602;52.142;5.408;2023-06-19T05:19:36;101090.06;;;20.76;73.75
71764;BME280;59602;52.142;5.408;2023-06-19T05:22:02;101102.78;;;20.73;73.50
71764;BME280;59602;52.142;5.408;2023-06-19T05:24:29;101108.75;;;20.71;73.72
71764;BME280;59602;52.142;5.408;2023-06-19T05:26:56;101100.34;;;20.75;73.49
71764;BME280;59602;52.142;5.408;2023-06-19T05:29:22;101112.63;;;20.74;73.62
71764;BME280;59602;52.142;5.408;2023-06-19T05:31:49;101111.09;;;20.73;72.96
71764;BME280;59602;52.142;5.408;2023-06-19T05:34:16;101108.88;;;20.68;72.92
71764;BME280;59602;52.142;5.408;2023-06-19T05:36:42;101115.59;;;20.67;72.14
71764;BME280;59602;52.142;5.408;2023-06-19T05:39:11;101123.81;;;20.70;72.18
71764;BME280;59602;52.142;5.408;2023-06-19T05:41:44;101126.66;;;20.67;71.73
71764;BME280;59602;52.142;5.408;2023-06-19T05:44:12;101118.84;;;20.65;71.16
71764;BME280;59602;52.142;5.408;2023-06-19T05:46:45;101127.00;;;20.69;71.44
71764;BME280;59602;52.142;5.408;2023-06-19T05:49:12;101130.09;;;20.71;71.70
71764;BME280;59602;52.142;5.408;2023-06-19T05:51:38;101128.91;;;20.72;71.78
71764;BME280;59602;52.142;5.408;2023-06-19T05:54:05;101141.47;;;20.73;71.60
71764;BME280;59602;52.142;5.408;2023-06-19T05:56:33;101147.44;;;20.71;71.73
71764;BME280;59602;52.142;5.408;2023-06-19T05:59:00;101139.81;;;20.63;72.09
71764;BME280;59602;52.142;5.408;2023-06-19T06:01:29;101142.56;;;20.63;71.97
71764;BME280;59602;52.142;5.408;2023-06-19T06:03:56;101130.88;;;20.59;72.17
71764;BME280;59602;52.142;5.408;2023-06-19T06:06:24;101145.91;;;20.58;72.15
71764;BME280;59602;52.142;5.408;2023-06-19T06:08:51;101141.47;;;20.60;72.25
71764;BME280;59602;52.142;5.408;2023-06-19T06:11:18;101146.56;;;20.62;72.00
71764;BME280;59602;52.142;5.408;2023-06-19T06:13:45;101151.78;;;20.72;72.00
71764;BME280;59602;52.142;5.408;2023-06-19T06:16:12;101153.88;;;20.81;71.95
71764;BME280;59602;52.142;5.408;2023-06-19T06:18:41;101158.72;;;20.90;71.23
71764;BME280;59602;52.142;5.408;2023-06-19T06:21:08;101164.91;;;20.94;71.09
71764;BME280;59602;52.142;5.408;2023-06-19T06:23:35;101173.44;;;21.00;71.19
71764;BME280;59602;52.142;5.408;2023-06-19T06:26:01;101170.88;;;21.05;70.29
71764;BME280;59602;52.142;5.408;2023-06-19T06:28:29;101175.53;;;21.08;70.51
71764;BME280;59602;52.142;5.408;2023-06-19T06:30:56;101181.63;;;21.03;68.98
71764;BME280;59602;52.142;5.408;2023-06-19T06:33:23;101185.59;;;21.02;67.64
71764;BME280;59602;52.142;5.408;2023-06-19T06:35:50;101179.94;;;21.06;67.91
71764;BME280;59602;52.142;5.408;2023-06-19T06:38:17;101197.06;;;21.01;67.53
71764;BME280;59602;52.142;5.408;2023-06-19T06:40:44;101192.97;;;21.05;67.77
71764;BME280;59602;52.142;5.408;2023-06-19T06:43:11;101189.00;;;21.06;66.99
71764;BME280;59602;52.142;5.408;2023-06-19T06:45:38;101192.13;;;21.08;67.04
71764;BME280;59602;52.142;5.408;2023-06-19T06:48:06;101198.97;;;21.17;67.51
71764;BME280;59602;52.142;5.408;2023-06-19T06:50:34;101204.28;;;21.11;66.30
71764;BME280;59602;52.142;5.408;2023-06-19T06:53:01;101210.25;;;21.09;67.74
71764;BME280;59602;52.142;5.408;2023-06-19T06:55:27;101205.59;;;21.06;66.58
71764;BME280;59602;52.142;5.408;2023-06-19T06:57:55;101209.03;;;21.10;66.55
71764;BME280;59602;52.142;5.408;2023-06-19T07:00:22;101215.34;;;21.11;67.29
71764;BME280;59602;52.142;5.408;2023-06-19T07:02:49;101224.63;;;21.17;66.93
71764;BME280;59602;52.142;5.408;2023-06-19T07:05:19;101230.25;;;21.26;67.29
71764;BME280;59602;52.142;5.408;2023-06-19T07:07:46;101228.50;;;21.20;66.55
71764;BME280;59602;52.142;5.408;2023-06-19T07:10:12;101233.03;;;21.13;66.68
71764;BME280;59602;52.142;5.408;2023-06-19T07:12:45;101231.81;;;21.14;66.30
71764;BME280;59602;52.142;5.408;2023-06-19T07:15:12;101242.00;;;21.18;66.20
71764;BME280;59602;52.142;5.408;2023-06-19T07:17:39;101245.53;;;21.18;66.09
71764;BME280;59602;52.142;5.408;2023-06-19T07:20:06;101246.19;;;21.22;66.08
71764;BME280;59602;52.142;5.408;2023-06-19T07:22:33;101245.97;;;21.29;65.39
71764;BME280;59602;52.142;5.408;2023-06-19T07:25:23;101258.91;;;21.32;65.61
71764;BME280;59602;52.142;5.408;2023-06-19T07:27:53;101257.25;;;21.35;66.06
71764;BME280;59602;52.142;5.408;2023-06-19T07:30:20;101258.28;;;21.41;66.32
71764;BME280;59602;52.142;5.408;2023-06-19T07:32:49;101265.00;;;21.53;66.28
71764;BME280;59602;52.142;5.408;2023-06-19T07:35:15;101273.84;;;21.61;66.33
71764;BME280;59602;52.142;5.408;2023-06-19T07:37:42;101258.69;;;21.52;65.81
71764;BME280;59602;52.142;5.408;2023-06-19T07:40:09;101276.63;;;21.35;65.91
71764;BME280;59602;52.142;5.408;2023-06-19T07:42:36;101282.03;;;21.51;65.71
71764;BME280;59602;52.142;5.408;2023-06-19T07:45:03;101271.94;;;21.70;64.92
71764;BME280;59602;52.142;5.408;2023-06-19T07:47:33;101264.06;;;21.82;63.30
71764;BME280;59602;52.142;5.408;2023-06-19T07:50:03;101281.88;;;21.81;62.76
71764;BME280;59602;52.142;5.408;2023-06-19T07:52:30;101281.13;;;21.67;63.48
71764;BME280;59602;52.142;5.408;2023-06-19T07:54:58;101294.97;;;21.67;64.68
71764;BME280;59602;52.142;5.408;2023-06-19T07:57:32;101292.53;;;21.69;63.62
71764;BME280;59602;52.142;5.408;2023-06-19T08:00:01;101294.88;;;21.71;62.86
71764;BME280;59602;52.142;5.408;2023-06-19T08:03:08;101294.28;;;21.76;63.45
71764;BME280;59602;52.142;5.408;2023-06-19T08:05:38;101302.81;;;21.82;62.66
71764;BME280;59602;52.142;5.408;2023-06-19T08:08:05;101301.59;;;21.83;63.66
71764;BME280;59602;52.142;5.408;2023-06-19T08:10:31;101300.72;;;21.86;63.70
71764;BME280;59602;52.142;5.408;2023-06-19T08:12:58;101300.56;;;21.89;63.29
71764;BME280;59602;52.142;5.408;2023-06-19T08:15:54;101299.44;;;22.00;63.98
71764;BME280;59602;52.142;5.408;2023-06-19T08:18:18;101297.53;;;22.22;63.91
71764;BME280;59602;52.142;5.408;2023-06-19T08:20:45;101299.91;;;22.33;62.32
71764;BME280;59602;52.142;5.408;2023-06-19T08:23:11;101301.06;;;22.23;61.96
71764;BME280;59602;52.142;5.408;2023-06-19T08:25:38;101319.44;;;22.16;62.26
71764;BME280;59602;52.142;5.408;2023-06-19T08:28:07;101304.94;;;22.12;62.10
71764;BME280;59602;52.142;5.408;2023-06-19T08:30:34;101315.59;;;22.01;62.84
71764;BME280;59602;52.142;5.408;2023-06-19T08:33:04;101324.13;;;22.07;62.83
71764;BME280;59602;52.142;5.408;2023-06-19T08:35:31;101326.50;;;21.95;63.39
71764;BME280;59602;52.142;5.408;2023-06-19T08:37:58;101330.88;;;22.06;63.78
71764;BME280;59602;52.142;5.408;2023-06-19T08:40:24;101327.31;;;22.18;63.49
71764;BME280;59602;52.142;5.408;2023-06-19T08:42:51;101328.00;;;22.22;62.30
71764;BME280;59602;52.142;5.408;2023-06-19T08:51:50;101347.25;;;22.26;63.10
71764;BME280;59602;52.142;5.408;2023-06-19T08:54:17;101350.56;;;22.33;61.73
71764;BME280;59602;52.142;5.408;2023-06-19T08:56:47;101357.13;;;22.27;62.24
71764;BME280;59602;52.142;5.408;2023-06-19T08:59:15;101357.63;;;22.34;62.43
71764;BME280;59602;52.142;5.408;2023-06-19T09:01:50;101359.28;;;22.45;62.80
71764;BME280;59602;52.142;5.408;2023-06-19T09:04:21;101349.97;;;22.38;60.59
71764;BME280;59602;52.142;5.408;2023-06-19T09:06:57;101347.88;;;22.43;60.87
71764;BME280;59602;52.142;5.408;2023-06-19T09:09:25;101352.31;;;22.40;61.00
71764;BME280;59602;52.142;5.408;2023-06-19T09:12:05;101358.09;;;22.55;61.17
71764;BME280;59602;52.142;5.408;2023-06-19T09:14:34;101357.34;;;22.54;61.23
71764;BME280;59602;52.142;5.408;2023-06-19T09:17:02;101366.63;;;22.61;61.24
71764;BME280;59602;52.142;5.408;2023-06-19T09:19:30;101368.63;;;22.60;61.92
71764;BME280;59602;52.142;5.408;2023-06-19T09:22:02;101367.94;;;22.69;61.77
71764;BME280;59602;52.142;5.408;2023-06-19T09:24:37;101369.91;;;22.68;60.65
71764;BME280;59602;52.142;5.408;2023-06-19T09:27:12;101371.78;;;22.49;61.74
71764;BME280;59602;52.142;5.408;2023-06-19T09:29:41;101377.97;;;22.53;61.22
71764;BME280;59602;52.142;5.408;2023-06-19T09:32:15;101386.28;;;22.53;61.21
71764;BME280;59602;52.142;5.408;2023-06-19T09:34:42;101380.28;;;22.55;60.91
71764;BME280;59602;52.142;5.408;2023-06-19T09:37:09;101381.50;;;22.54;61.16
71764;BME280;59602;52.142;5.408;2023-06-19T09:39:37;101398.47;;;22.56;60.87
71764;BME280;59602;52.142;5.408;2023-06-19T09:42:06;101387.78;;;22.67;59.98
71764;BME280;59602;52.142;5.408;2023-06-19T09:44:39;101393.53;;;22.73;59.74
71764;BME280;59602;52.142;5.408;2023-06-19T09:47:15;101399.63;;;22.68;60.15
71764;BME280;59602;52.142;5.408;2023-06-19T09:49:49;101403.72;;;22.76;59.94
71764;BME280;59602;52.142;5.408;2023-06-19T09:52:17;101404.44;;;22.89;59.67
71764;BME280;59602;52.142;5.408;2023-06-19T09:54:46;101402.44;;;22.90;59.64
71764;BME280;59602;52.142;5.408;2023-06-19T09:57:12;101410.72;;;23.03;59.29
71764;BME280;59602;52.142;5.408;2023-06-19T09:59:40;101407.06;;;23.15;59.74
71764;BME280;59602;52.142;5.408;2023-06-19T10:02:30;101418.63;;;23.35;57.95
71764;BME280;59602;52.142;5.408;2023-06-19T10:04:57;101423.91;;;23.42;57.43
71764;BME280;59602;52.142;5.408;2023-06-19T10:07:26;101429.94;;;23.50;57.75
71764;BME280;59602;52.142;5.408;2023-06-19T10:10:00;101418.09;;;23.59;58.89
71764;BME280;59602;52.142;5.408;2023-06-19T10:15:20;101419.78;;;23.88;56.72
71764;BME280;59602;52.142;5.408;2023-06-19T10:17:50;101411.19;;;24.04;55.73
71764;BME280;59602;52.142;5.408;2023-06-19T10:20:30;101412.84;;;23.92;55.23
71764;BME280;59602;52.142;5.408;2023-06-19T10:23:11;101412.44;;;24.12;55.58
71764;BME280;59602;52.142;5.408;2023-06-19T10:25:40;101404.63;;;24.38;54.99
71764;BME280;59602;52.142;5.408;2023-06-19T10:28:18;101419.16;;;24.70;55.10
71764;BME280;59602;52.142;5.408;2023-06-19T10:30:45;101416.81;;;24.87;52.82
71764;BME280;59602;52.142;5.408;2023-06-19T10:33:25;101416.84;;;24.96;53.29
71764;BME280;59602;52.142;5.408;2023-06-19T10:35:53;101426.09;;;24.93;52.81
71764;BME280;59602;52.142;5.408;2023-06-19T10:38:21;101419.00;;;24.83;53.10
71764;BME280;59602;52.142;5.408;2023-06-19T10:40:47;101411.13;;;24.72;52.93
71764;BME280;59602;52.142;5.408;2023-06-19T10:43:21;101419.00;;;24.83;52.78
71764;BME280;59602;52.142;5.408;2023-06-19T10:45:51;101422.38;;;25.05;52.01
71764;BME280;59602;52.142;5.408;2023-06-19T10:48:23;101421.28;;;25.21;51.37
71764;BME280;59602;52.142;5.408;2023-06-19T10:50:51;101420.94;;;25.29;52.32
71764;BME280;59602;52.142;5.408;2023-06-19T10:53:25;101418.00;;;25.14;51.09
71764;BME280;59602;52.142;5.408;2023-06-19T10:56:29;101415.06;;;25.17;52.05
71764;BME280;59602;52.142;5.408;2023-06-19T10:59:01;101420.81;;;25.23;51.44
71764;BME280;59602;52.142;5.408;2023-06-19T11:01:40;101415.69;;;25.31;50.14
71764;BME280;59602;52.142;5.408;2023-06-19T11:04:09;101418.94;;;25.29;49.97
71764;BME280;59602;52.142;5.408;2023-06-19T11:06:38;101414.44;;;25.41;49.78
71764;BME280;59602;52.142;5.408;2023-06-19T11:11:49;101420.81;;;25.99;48.95
71764;BME280;59602;52.142;5.408;2023-06-19T11:14:16;101413.84;;;26.03;47.69
71764;BME280;59602;52.142;5.408;2023-06-19T11:16:46;101422.63;;;25.78;48.42
71764;BME280;59602;52.142;5.408;2023-06-19T11:19:16;101419.69;;;25.81;48.60
71764;BME280;59602;52.142;5.408;2023-06-19T11:21:46;101414.72;;;25.76;47.62
71764;BME280;59602;52.142;5.408;2023-06-19T11:24:14;101409.59;;;25.51;48.84
71764;BME280;59602;52.142;5.408;2023-06-19T11:26:47;101414.91;;;25.39;48.74
71764;BME280;59602;52.142;5.408;2023-06-19T11:29:23;101414.41;;;25.50;49.83
71764;BME280;59602;52.142;5.408;2023-06-19T11:32:03;101413.50;;;25.77;49.06
71764;BME280;59602;52.142;5.408;2023-06-19T11:34:32;101414.69;;;25.95;49.51
71764;BME280;59602;52.142;5.408;2023-06-19T11:37:13;101422.50;;;26.05;47.83
71764;BME280;59602;52.142;5.408;2023-06-19T11:39:43;101413.44;;;25.86;47.78
71764;BME280;59602;52.142;5.408;2023-06-19T11:42:11;101410.81;;;25.83;48.02
71764;BME280;59602;52.142;5.408;2023-06-19T11:44:59;101420.72;;;25.93;47.09
71764;BME280;59602;52.142;5.408;2023-06-19T11:47:29;101425.56;;;25.74;47.35
71764;BME280;59602;52.142;5.408;2023-06-19T11:49:59;101424.75;;;25.83;48.07
71764;BME280;59602;52.142;5.408;2023-06-19T11:52:47;101423.97;;;25.92;47.26
71764;BME280;59602;52.142;5.408;2023-06-19T11:55:14;101422.16;;;26.13;46.68
71764;BME280;59602;52.142;5.408;2023-06-19T11:57:42;101427.53;;;26.40;45.97
71764;BME280;59602;52.142;5.408;2023-06-19T12:00:14;101424.59;;;26.44;47.75
71764;BME280;59602;52.142;5.408;2023-06-19T12:02:41;101425.50;;;26.41;45.66
71764;BME280;59602;52.142;5.408;2023-06-19T12:05:08;101421.03;;;26.19;46.12
71764;BME280;59602;52.142;5.408;2023-06-19T12:07:36;101417.06;;;26.11;46.29
71764;BME280;59602;52.142;5.408;2023-06-19T12:10:03;101419.63;;;26.39;46.27
71764;BME280;59602;52.142;5.408;2023-06-19T12:12:31;101430.31;;;26.64;45.09
71764;BME280;59602;52.142;5.408;2023-06-19T12:14:57;101430.91;;;26.68;44.39
71764;BME280;59602;52.142;5.408;2023-06-19T12:17:24;101421.84;;;26.59;44.91
71764;BME280;59602;52.142;5.408;2023-06-19T12:19:50;101425.34;;;26.68;44.68
71764;BME280;59602;52.142;5.408;2023-06-19T12:22:18;101428.63;;;26.82;45.20
71764;BME280;59602;52.142;5.408;2023-06-19T12:24:44;101416.03;;;26.86;44.62
71764;BME280;59602;52.142;5.408;2023-06-19T12:27:11;101421.91;;;27.03;45.29
71764;BME280;59602;52.142;5.408;2023-06-19T12:29:37;101433.38;;;26.90;42.94
71764;BME280;59602;52.142;5.408;2023-06-19T12:32:04;101426.69;;;26.88;43.30
71764;BME280;59602;52.142;5.408;2023-06-19T12:34:31;101425.22;;;26.63;43.69
71764;BME280;59602;52.142;5.408;2023-06-19T12:36:58;101421.50;;;26.66;45.41
71764;BME280;59602;52.142;5.408;2023-06-19T12:39:24;101432.19;;;26.82;44.04
71764;BME280;59602;52.142;5.408;2023-06-19T12:41:52;101435.44;;;26.81;43.96
71764;BME280;59602;52.142;5.408;2023-06-19T12:44:21;101429.69;;;26.84;44.18
71764;BME280;59602;52.142;5.408;2023-06-19T12:46:47;101434.31;;;27.02;43.13
71764;BME280;59602;52.142;5.408;2023-06-19T12:49:14;101433.63;;;26.92;44.15
71764;BME280;59602;52.142;5.408;2023-06-19T12:51:41;101429.78;;;26.90;45.06
71764;BME280;59602;52.142;5.408;2023-06-19T12:54:07;101427.63;;;26.70;43.25
71764;BME280;59602;52.142;5.408;2023-06-19T12:56:34;101426.41;;;26.86;44.36
71764;BME280;59602;52.142;5.408;2023-06-19T12:59:00;101434.53;;;27.13;43.06
71764;BME280;59602;52.142;5.408;2023-06-19T13:01:28;101429.75;;;27.29;42.52
71764;BME280;59602;52.142;5.408;2023-06-19T13:03:55;101426.16;;;27.43;42.32
71764;BME280;59602;52.142;5.408;2023-06-19T13:06:21;101429.16;;;27.25;42.55
71764;BME280;59602;52.142;5.408;2023-06-19T13:08:48;101434.44;;;27.23;41.83
71764;BME280;59602;52.142;5.408;2023-06-19T13:11:17;101422.31;;;27.26;42.17
71764;BME280;59602;52.142;5.408;2023-06-19T13:13:43;101426.25;;;27.04;43.43
71764;BME280;59602;52.142;5.408;2023-06-19T13:16:10;101414.47;;;26.85;43.80
71764;BME280;59602;52.142;5.408;2023-06-19T13:18:40;101423.53;;;26.80;44.66